sensor_id;sensor_type;location;lat;lon;timestamp;P1;durP1;ratioP1;P2;durP2;ratioP2
9559;SDS011;4818;50.860;4.648;2022-10-16T00:00:36;0.73;;;0.20;;
9559;SDS011;4818;50.860;4.648;2022-10-16T00:03:03;0.93;;;0.13;;
9559;SDS011;4818;50.860;4.648;2022-10-16T00:05:29;0.65;;;0.20;;
9559;SDS011;4818;50.860;4.648;2022-10-16T00:07:55;1.08;;;0.22;;
9559;SDS011;4818;50.860;4.648;2022-10-16T00:10:22;2.63;;;0.30;;
9559;SDS011;4818;50.860;4.648;2022-10-16T00:12:48;1.25;;;0.15;;
9559;SDS011;4818;50.860;4.648;2022-10-16T00:15:14;0.60;;;0.10;;
9559;SDS011;4818;50.860;4.648;2022-10-16T00:17:41;1.02;;;0.20;;
9559;SDS011;4818;50.860;4.648;2022-10-16T00:20:07;7.63;;;0.65;;
9559;SDS011;4818;50.860;4.648;2022-10-16T00:22:33;1.67;;;0.10;;
9559;SDS011;4818;50.860;4.648;2022-10-16T00:24:59;3.35;;;0.20;;
9559;SDS011;4818;50.860;4.648;2022-10-16T00:27:25;1.80;;;0.22;;
9559;SDS011;4818;50.860;4.648;2022-10-16T00:29:52;1.70;;;0.15;;
9559;SDS011;4818;50.860;4.648;2022-10-16T00:32:19;1.85;;;0.20;;
9559;SDS011;4818;50.860;4.648;2022-10-16T00:34:45;1.25;;;0.10;;
9559;SDS011;4818;50.860;4.648;2022-10-16T00:37:11;2.72;;;0.20;;
9559;SDS011;4818;50.860;4.648;2022-10-16T00:39:38;0.60;;;0.10;;
9559;SDS011;4818;50.860;4.648;2022-10-16T00:42:04;0.40;;;0.15;;
9559;SDS011;4818;50.860;4.648;2022-10-16T00:44:50;1.25;;;0.17;;
9559;SDS011;4818;50.860;4.648;2022-10-16T00:49:48;0.85;;;0.20;;
9559;SDS011;4818;50.860;4.648;2022-10-16T00:52:15;0.90;;;0.20;;
9559;SDS011;4818;50.860;4.648;2022-10-16T00:54:42;1.85;;;0.10;;
9559;SDS011;4818;50.860;4.648;2022-10-16T00:57:08;1.77;;;0.13;;
9559;SDS011;4818;50.860;4.648;2022-10-16T00:59:36;3.88;;;0.20;;
9559;SDS011;4818;50.860;4.648;2022-10-16T01:02:03;1.50;;;0.20;;
9559;SDS011;4818;50.860;4.648;2022-10-16T01:04:32;0.43;;;0.10;;
9559;SDS011;4818;50.860;4.648;2022-10-16T01:09:37;0.82;;;0.20;;
9559;SDS011;4818;50.860;4.648;2022-10-16T01:12:42;3.65;;;0.20;;
9559;SDS011;4818;50.860;4.648;2022-10-16T01:28:03;0.82;;;0.20;;
9559;SDS011;4818;50.860;4.648;2022-10-16T01:30:30;3.70;;;0.25;;
9559;SDS011;4818;50.860;4.648;2022-10-16T01:33:17;0.30;;;0.10;;
9559;SDS011;4818;50.860;4.648;2022-10-16T01:35:51;1.30;;;0.30;;
9559;SDS011;4818;50.860;4.648;2022-10-16T01:40:45;0.52;;;0.20;;
9559;SDS011;4818;50.860;4.648;2022-10-16T01:43:14;3.63;;;0.20;;
9559;SDS011;4818;50.860;4.648;2022-10-16T01:45:41;2.38;;;0.20;;
9559;SDS011;4818;50.860;4.648;2022-10-16T01:48:10;0.70;;;0.20;;
9559;SDS011;4818;50.860;4.648;2022-10-16T01:50:38;1.08;;;0.20;;
9559;SDS011;4818;50.860;4.648;2022-10-16T01:53:05;1.05;;;0.25;;
9559;SDS011;4818;50.860;4.648;2022-10-16T01:55:33;2.45;;;0.20;;
9559;SDS011;4818;50.860;4.648;2022-10-16T01:58:01;3.97;;;0.35;;
9559;SDS011;4818;50.860;4.648;2022-10-16T02:00:29;1.60;;;0.20;;
9559;SDS011;4818;50.860;4.648;2022-10-16T02:02:55;1.60;;;0.20;;
9559;SDS011;4818;50.860;4.648;2022-10-16T02:05:34;0.93;;;0.28;;
9559;SDS011;4818;50.860;4.648;2022-10-16T02:08:02;0.80;;;0.20;;
9559;SDS011;4818;50.860;4.648;2022-10-16T02:10:29;1.38;;;0.22;;
9559;SDS011;4818;50.860;4.648;2022-10-16T02:13:00;2.83;;;0.32;;
9559;SDS011;4818;50.860;4.648;2022-10-16T02:15:29;0.50;;;0.20;;
9559;SDS011;4818;50.860;4.648;2022-10-16T02:17:55;2.67;;;0.20;;
9559;SDS011;4818;50.860;4.648;2022-10-16T02:20:24;4.18;;;0.40;;
9559;SDS011;4818;50.860;4.648;2022-10-16T02:22:51;0.73;;;0.30;;
9559;SDS011;4818;50.860;4.648;2022-10-16T02:25:31;1.63;;;0.30;;
9559;SDS011;4818;50.860;4.648;2022-10-16T02:30:25;2.85;;;0.30;;
9559;SDS011;4818;50.860;4.648;2022-10-16T02:32:53;2.47;;;0.20;;
9559;SDS011;4818;50.860;4.648;2022-10-16T02:35:21;1.00;;;0.30;;
9559;SDS011;4818;50.860;4.648;2022-10-16T02:37:48;1.50;;;0.20;;
9559;SDS011;4818;50.860;4.648;2022-10-16T02:40:15;3.85;;;0.20;;
9559;SDS011;4818;50.860;4.648;2022-10-16T02:42:41;0.85;;;0.17;;
9559;SDS011;4818;50.860;4.648;2022-10-16T02:45:08;3.42;;;0.30;;
9559;SDS011;4818;50.860;4.648;2022-10-16T02:47:34;1.50;;;0.25;;
9559;SDS011;4818;50.860;4.648;2022-10-16T02:50:01;3.28;;;0.20;;
9559;SDS011;4818;50.860;4.648;2022-10-16T02:52:27;0.77;;;0.20;;
9559;SDS011;4818;50.860;4.648;2022-10-16T02:54:53;1.65;;;0.20;;
9559;SDS011;4818;50.860;4.648;2022-10-16T02:57:19;3.65;;;0.32;;
9559;SDS011;4818;50.860;4.648;2022-10-16T02:59:45;2.47;;;0.20;;
9559;SDS011;4818;50.860;4.648;2022-10-16T03:02:12;5.40;;;0.30;;
9559;SDS011;4818;50.860;4.648;2022-10-16T03:04:38;1.05;;;0.30;;
9559;SDS011;4818;50.860;4.648;2022-10-16T03:07:04;1.50;;;0.30;;
9559;SDS011;4818;50.860;4.648;2022-10-16T03:09:30;1.80;;;0.38;;
9559;SDS011;4818;50.860;4.648;2022-10-16T03:11:56;3.50;;;0.30;;
9559;SDS011;4818;50.860;4.648;2022-10-16T03:14:23;2.90;;;0.50;;
9559;SDS011;4818;50.860;4.648;2022-10-16T03:16:49;3.22;;;0.40;;
9559;SDS011;4818;50.860;4.648;2022-10-16T03:19:16;2.08;;;0.40;;
9559;SDS011;4818;50.860;4.648;2022-10-16T03:21:42;3.15;;;0.55;;
9559;SDS011;4818;50.860;4.648;2022-10-16T03:24:08;1.77;;;0.20;;
9559;SDS011;4818;50.860;4.648;2022-10-16T03:26:35;3.53;;;0.32;;
9559;SDS011;4818;50.860;4.648;2022-10-16T03:29:01;0.80;;;0.30;;
9559;SDS011;4818;50.860;4.648;2022-10-16T03:31:28;1.17;;;0.30;;
9559;SDS011;4818;50.860;4.648;2022-10-16T03:33:55;2.50;;;0.63;;
9559;SDS011;4818;50.860;4.648;2022-10-16T03:36:21;1.95;;;0.20;;
9559;SDS011;4818;50.860;4.648;2022-10-16T03:38:48;0.80;;;0.30;;
9559;SDS011;4818;50.860;4.648;2022-10-16T03:41:14;1.08;;;0.40;;
9559;SDS011;4818;50.860;4.648;2022-10-16T03:43:40;1.33;;;0.30;;
9559;SDS011;4818;50.860;4.648;2022-10-16T03:46:06;1.40;;;0.40;;
9559;SDS011;4818;50.860;4.648;2022-10-16T03:48:32;0.98;;;0.38;;
9559;SDS011;4818;50.860;4.648;2022-10-16T03:50:59;4.10;;;0.40;;
9559;SDS011;4818;50.860;4.648;2022-10-16T03:53:25;1.85;;;0.30;;
9559;SDS011;4818;50.860;4.648;2022-10-16T03:55:52;1.15;;;0.38;;
9559;SDS011;4818;50.860;4.648;2022-10-16T03:58:18;6.60;;;0.70;;
9559;SDS011;4818;50.860;4.648;2022-10-16T04:00:45;1.05;;;0.40;;
9559;SDS011;4818;50.860;4.648;2022-10-16T04:03:12;2.65;;;0.30;;
9559;SDS011;4818;50.860;4.648;2022-10-16T04:05:38;6.40;;;0.73;;
9559;SDS011;4818;50.860;4.648;2022-10-16T04:08:05;1.25;;;0.38;;
9559;SDS011;4818;50.860;4.648;2022-10-16T04:10:31;1.10;;;0.43;;
9559;SDS011;4818;50.860;4.648;2022-10-16T04:12:58;2.78;;;0.50;;
9559;SDS011;4818;50.860;4.648;2022-10-16T04:15:24;6.00;;;0.50;;
9559;SDS011;4818;50.860;4.648;2022-10-16T04:17:50;2.25;;;0.40;;
9559;SDS011;4818;50.860;4.648;2022-10-16T04:20:17;2.10;;;0.50;;
9559;SDS011;4818;50.860;4.648;2022-10-16T04:22:43;2.25;;;0.47;;
9559;SDS011;4818;50.860;4.648;2022-10-16T04:25:09;2.83;;;0.60;;
9559;SDS011;4818;50.860;4.648;2022-10-16T04:27:36;2.72;;;0.40;;
9559;SDS011;4818;50.860;4.648;2022-10-16T04:30:02;2.50;;;0.50;;
9559;SDS011;4818;50.860;4.648;2022-10-16T04:32:29;3.13;;;0.40;;
9559;SDS011;4818;50.860;4.648;2022-10-16T04:34:55;1.83;;;0.47;;
9559;SDS011;4818;50.860;4.648;2022-10-16T04:37:25;4.07;;;0.38;;
9559;SDS011;4818;50.860;4.648;2022-10-16T04:39:52;5.13;;;0.60;;
9559;SDS011;4818;50.860;4.648;2022-10-16T04:42:18;1.15;;;0.40;;
9559;SDS011;4818;50.860;4.648;2022-10-16T04:44:44;1.58;;;0.70;;
9559;SDS011;4818;50.860;4.648;2022-10-16T04:47:11;1.60;;;0.47;;
9559;SDS011;4818;50.860;4.648;2022-10-16T04:49:37;3.72;;;0.50;;
9559;SDS011;4818;50.860;4.648;2022-10-16T04:52:04;5.68;;;0.75;;
9559;SDS011;4818;50.860;4.648;2022-10-16T04:54:30;1.52;;;0.50;;
9559;SDS011;4818;50.860;4.648;2022-10-16T04:56:56;1.85;;;0.50;;
9559;SDS011;4818;50.860;4.648;2022-10-16T04:59:23;1.88;;;0.50;;
9559;SDS011;4818;50.860;4.648;2022-10-16T05:01:49;2.90;;;0.50;;
9559;SDS011;4818;50.860;4.648;2022-10-16T05:04:15;4.70;;;0.50;;
9559;SDS011;4818;50.860;4.648;2022-10-16T05:06:42;2.55;;;0.50;;
9559;SDS011;4818;50.860;4.648;2022-10-16T05:09:09;2.75;;;1.08;;
9559;SDS011;4818;50.860;4.648;2022-10-16T05:11:35;1.63;;;0.60;;
9559;SDS011;4818;50.860;4.648;2022-10-16T05:14:01;2.80;;;0.80;;
9559;SDS011;4818;50.860;4.648;2022-10-16T05:16:27;1.67;;;0.75;;
9559;SDS011;4818;50.860;4.648;2022-10-16T05:18:53;4.05;;;0.52;;
9559;SDS011;4818;50.860;4.648;2022-10-16T05:21:20;2.10;;;1.05;;
9559;SDS011;4818;50.860;4.648;2022-10-16T05:23:46;3.05;;;0.63;;
9559;SDS011;4818;50.860;4.648;2022-10-16T05:26:12;1.02;;;0.40;;
9559;SDS011;4818;50.860;4.648;2022-10-16T05:28:39;3.50;;;0.45;;
9559;SDS011;4818;50.860;4.648;2022-10-16T05:31:05;7.18;;;0.95;;
9559;SDS011;4818;50.860;4.648;2022-10-16T05:33:32;1.58;;;0.55;;
9559;SDS011;4818;50.860;4.648;2022-10-16T05:36:05;3.42;;;0.63;;
9559;SDS011;4818;50.860;4.648;2022-10-16T05:38:32;3.72;;;0.50;;
9559;SDS011;4818;50.860;4.648;2022-10-16T05:40:59;2.25;;;0.63;;
9559;SDS011;4818;50.860;4.648;2022-10-16T05:43:26;3.65;;;0.60;;
9559;SDS011;4818;50.860;4.648;2022-10-16T05:45:55;4.20;;;1.05;;
9559;SDS011;4818;50.860;4.648;2022-10-16T05:48:22;10.60;;;1.05;;
9559;SDS011;4818;50.860;4.648;2022-10-16T05:50:48;5.00;;;0.70;;
9559;SDS011;4818;50.860;4.648;2022-10-16T05:53:14;1.23;;;0.55;;
9559;SDS011;4818;50.860;4.648;2022-10-16T05:55:41;1.23;;;0.40;;
9559;SDS011;4818;50.860;4.648;2022-10-16T05:58:07;4.30;;;0.57;;
9559;SDS011;4818;50.860;4.648;2022-10-16T06:00:33;2.65;;;0.80;;
9559;SDS011;4818;50.860;4.648;2022-10-16T06:02:59;1.40;;;0.47;;
9559;SDS011;4818;50.860;4.648;2022-10-16T06:05:25;5.32;;;0.88;;
9559;SDS011;4818;50.860;4.648;2022-10-16T06:07:52;2.55;;;0.60;;
9559;SDS011;4818;50.860;4.648;2022-10-16T06:10:18;1.40;;;0.80;;
9559;SDS011;4818;50.860;4.648;2022-10-16T06:12:44;2.25;;;0.70;;
9559;SDS011;4818;50.860;4.648;2022-10-16T06:15:18;3.88;;;0.65;;
9559;SDS011;4818;50.860;4.648;2022-10-16T06:17:44;4.20;;;0.80;;
9559;SDS011;4818;50.860;4.648;2022-10-16T06:20:10;4.40;;;1.15;;
9559;SDS011;4818;50.860;4.648;2022-10-16T06:22:37;4.82;;;0.65;;
9559;SDS011;4818;50.860;4.648;2022-10-16T06:25:03;4.55;;;0.90;;
9559;SDS011;4818;50.860;4.648;2022-10-16T06:27:29;3.97;;;0.80;;
9559;SDS011;4818;50.860;4.648;2022-10-16T06:29:55;3.08;;;0.80;;
9559;SDS011;4818;50.860;4.648;2022-10-16T06:32:22;1.65;;;0.80;;
9559;SDS011;4818;50.860;4.648;2022-10-16T06:34:48;2.67;;;0.70;;
9559;SDS011;4818;50.860;4.648;2022-10-16T06:37:15;4.50;;;0.70;;
9559;SDS011;4818;50.860;4.648;2022-10-16T06:39:41;3.45;;;0.85;;
9559;SDS011;4818;50.860;4.648;2022-10-16T06:42:07;2.30;;;0.50;;
9559;SDS011;4818;50.860;4.648;2022-10-16T06:44:33;2.00;;;0.90;;
9559;SDS011;4818;50.860;4.648;2022-10-16T06:46:59;2.63;;;1.13;;
9559;SDS011;4818;50.860;4.648;2022-10-16T06:49:26;7.22;;;1.00;;
9559;SDS011;4818;50.860;4.648;2022-10-16T06:51:53;4.75;;;1.17;;
9559;SDS011;4818;50.860;4.648;2022-10-16T06:54:19;3.17;;;1.05;;
9559;SDS011;4818;50.860;4.648;2022-10-16T06:56:45;3.53;;;1.63;;
9559;SDS011;4818;50.860;4.648;2022-10-16T06:59:12;3.83;;;1.00;;
9559;SDS011;4818;50.860;4.648;2022-10-16T07:01:38;3.65;;;1.17;;
9559;SDS011;4818;50.860;4.648;2022-10-16T07:04:04;2.03;;;0.50;;
9559;SDS011;4818;50.860;4.648;2022-10-16T07:06:32;1.38;;;0.60;;
9559;SDS011;4818;50.860;4.648;2022-10-16T07:08:58;2.72;;;0.40;;
9559;SDS011;4818;50.860;4.648;2022-10-16T07:11:26;0.52;;;0.28;;
9559;SDS011;4818;50.860;4.648;2022-10-16T07:13:52;1.27;;;0.30;;
9559;SDS011;4818;50.860;4.648;2022-10-16T07:16:19;0.60;;;0.30;;
9559;SDS011;4818;50.860;4.648;2022-10-16T07:18:46;3.20;;;0.38;;
9559;SDS011;4818;50.860;4.648;2022-10-16T07:21:19;1.15;;;0.50;;
9559;SDS011;4818;50.860;4.648;2022-10-16T07:23:46;0.75;;;0.22;;
9559;SDS011;4818;50.860;4.648;2022-10-16T07:26:15;1.20;;;0.40;;
9559;SDS011;4818;50.860;4.648;2022-10-16T07:28:42;0.98;;;0.30;;
9559;SDS011;4818;50.860;4.648;2022-10-16T07:31:09;2.25;;;0.30;;
9559;SDS011;4818;50.860;4.648;2022-10-16T07:33:36;1.17;;;0.40;;
9559;SDS011;4818;50.860;4.648;2022-10-16T07:36:04;1.20;;;0.30;;
9559;SDS011;4818;50.860;4.648;2022-10-16T07:38:30;0.70;;;0.30;;
9559;SDS011;4818;50.860;4.648;2022-10-16T07:40:57;0.68;;;0.20;;
9559;SDS011;4818;50.860;4.648;2022-10-16T07:43:24;0.88;;;0.35;;
9559;SDS011;4818;50.860;4.648;2022-10-16T07:45:51;3.03;;;0.50;;
9559;SDS011;4818;50.860;4.648;2022-10-16T07:48:17;1.58;;;0.30;;
9559;SDS011;4818;50.860;4.648;2022-10-16T07:50:44;0.93;;;0.30;;
9559;SDS011;4818;50.860;4.648;2022-10-16T07:53:11;3.20;;;0.40;;
9559;SDS011;4818;50.860;4.648;2022-10-16T07:55:42;1.92;;;0.30;;
9559;SDS011;4818;50.860;4.648;2022-10-16T07:58:08;1.20;;;0.20;;
9559;SDS011;4818;50.860;4.648;2022-10-16T08:00:35;1.70;;;0.40;;
9559;SDS011;4818;50.860;4.648;2022-10-16T08:03:02;1.27;;;0.30;;
9559;SDS011;4818;50.860;4.648;2022-10-16T08:05:29;1.27;;;0.25;;
9559;SDS011;4818;50.860;4.648;2022-10-16T08:07:57;2.13;;;0.43;;
9559;SDS011;4818;50.860;4.648;2022-10-16T08:10:24;0.98;;;0.30;;
9559;SDS011;4818;50.860;4.648;2022-10-16T08:12:51;3.83;;;0.47;;
9559;SDS011;4818;50.860;4.648;2022-10-16T08:15:18;0.80;;;0.30;;
9559;SDS011;4818;50.860;4.648;2022-10-16T08:17:57;2.20;;;0.30;;
9559;SDS011;4818;50.860;4.648;2022-10-16T08:20:25;0.95;;;0.28;;
9559;SDS011;4818;50.860;4.648;2022-10-16T08:22:52;0.82;;;0.30;;
9559;SDS011;4818;50.860;4.648;2022-10-16T08:25:19;1.27;;;0.20;;
9559;SDS011;4818;50.860;4.648;2022-10-16T08:27:46;1.02;;;0.20;;
9559;SDS011;4818;50.860;4.648;2022-10-16T08:30:13;0.80;;;0.20;;
9559;SDS011;4818;50.860;4.648;2022-10-16T08:32:39;2.03;;;0.30;;
9559;SDS011;4818;50.860;4.648;2022-10-16T08:35:07;1.98;;;0.22;;
9559;SDS011;4818;50.860;4.648;2022-10-16T08:37:39;2.25;;;0.30;;
9559;SDS011;4818;50.860;4.648;2022-10-16T08:40:14;0.20;;;0.10;;
9559;SDS011;4818;50.860;4.648;2022-10-16T08:50:38;2.05;;;0.20;;
9559;SDS011;4818;50.860;4.648;2022-10-16T08:53:05;1.50;;;0.20;;
9559;SDS011;4818;50.860;4.648;2022-10-16T08:55:41;0.88;;;0.20;;
9559;SDS011;4818;50.860;4.648;2022-10-16T08:58:12;2.75;;;0.30;;
9559;SDS011;4818;50.860;4.648;2022-10-16T09:00:39;2.05;;;0.40;;
9559;SDS011;4818;50.860;4.648;2022-10-16T09:08:31;1.48;;;0.20;;
9559;SDS011;4818;50.860;4.648;2022-10-16T09:13:59;0.95;;;0.30;;
9559;SDS011;4818;50.860;4.648;2022-10-16T09:16:33;3.03;;;0.22;;
9559;SDS011;4818;50.860;4.648;2022-10-16T09:19:03;2.63;;;0.17;;
9559;SDS011;4818;50.860;4.648;2022-10-16T09:21:31;1.52;;;0.20;;
9559;SDS011;4818;50.860;4.648;2022-10-16T09:24:06;2.67;;;0.20;;
9559;SDS011;4818;50.860;4.648;2022-10-16T09:26:41;1.20;;;0.20;;
9559;SDS011;4818;50.860;4.648;2022-10-16T09:29:15;2.75;;;0.20;;
9559;SDS011;4818;50.860;4.648;2022-10-16T09:31:44;1.85;;;0.20;;
9559;SDS011;4818;50.860;4.648;2022-10-16T09:36:45;3.05;;;0.10;;
9559;SDS011;4818;50.860;4.648;2022-10-16T09:39:12;2.08;;;0.20;;
9559;SDS011;4818;50.860;4.648;2022-10-16T09:41:42;2.75;;;0.25;;
9559;SDS011;4818;50.860;4.648;2022-10-16T09:44:17;3.20;;;0.20;;
9559;SDS011;4818;50.860;4.648;2022-10-16T09:46:45;1.25;;;0.20;;
9559;SDS011;4818;50.860;4.648;2022-10-16T09:49:25;0.88;;;0.20;;
9559;SDS011;4818;50.860;4.648;2022-10-16T09:52:13;2.05;;;0.30;;
9559;SDS011;4818;50.860;4.648;2022-10-16T09:54:48;2.85;;;0.20;;
9559;SDS011;4818;50.860;4.648;2022-10-16T09:57:14;2.55;;;0.20;;
9559;SDS011;4818;50.860;4.648;2022-10-16T09:59:50;2.40;;;0.40;;
9559;SDS011;4818;50.860;4.648;2022-10-16T10:02:18;1.50;;;0.10;;
9559;SDS011;4818;50.860;4.648;2022-10-16T10:04:52;0.90;;;0.20;;
9559;SDS011;4818;50.860;4.648;2022-10-16T10:07:32;1.50;;;0.20;;
9559;SDS011;4818;50.860;4.648;2022-10-16T10:10:00;1.30;;;0.30;;
9559;SDS011;4818;50.860;4.648;2022-10-16T10:12:27;0.70;;;0.10;;
9559;SDS011;4818;50.860;4.648;2022-10-16T10:15:04;2.33;;;0.30;;
9559;SDS011;4818;50.860;4.648;2022-10-16T10:17:31;1.23;;;0.20;;
9559;SDS011;4818;50.860;4.648;2022-10-16T10:20:14;1.00;;;0.10;;
9559;SDS011;4818;50.860;4.648;2022-10-16T10:22:41;1.48;;;0.15;;
9559;SDS011;4818;50.860;4.648;2022-10-16T10:32:41;1.05;;;0.20;;
9559;SDS011;4818;50.860;4.648;2022-10-16T10:40:43;1.77;;;0.30;;
9559;SDS011;4818;50.860;4.648;2022-10-16T10:45:48;1.40;;;0.17;;
9559;SDS011;4818;50.860;4.648;2022-10-16T10:48:27;5.72;;;0.22;;
9559;SDS011;4818;50.860;4.648;2022-10-16T11:01:16;3.53;;;0.10;;
9559;SDS011;4818;50.860;4.648;2022-10-16T11:03:51;1.52;;;0.20;;
9559;SDS011;4818;50.860;4.648;2022-10-16T11:06:28;2.00;;;0.20;;
9559;SDS011;4818;50.860;4.648;2022-10-16T11:09:15;2.33;;;0.10;;
9559;SDS011;4818;50.860;4.648;2022-10-16T11:14:21;1.55;;;0.10;;
9559;SDS011;4818;50.860;4.648;2022-10-16T11:16:54;2.47;;;0.30;;
9559;SDS011;4818;50.860;4.648;2022-10-16T11:19:37;4.60;;;0.17;;
9559;SDS011;4818;50.860;4.648;2022-10-16T11:24:54;1.70;;;0.20;;
9559;SDS011;4818;50.860;4.648;2022-10-16T11:27:33;0.70;;;0.10;;
9559;SDS011;4818;50.860;4.648;2022-10-16T11:30:01;0.70;;;0.10;;
9559;SDS011;4818;50.860;4.648;2022-10-16T11:32:29;1.98;;;0.20;;
9559;SDS011;4818;50.860;4.648;2022-10-16T11:35:00;2.83;;;0.32;;
9559;SDS011;4818;50.860;4.648;2022-10-16T11:37:32;4.82;;;0.20;;
9559;SDS011;4818;50.860;4.648;2022-10-16T11:40:03;3.08;;;0.28;;
9559;SDS011;4818;50.860;4.648;2022-10-16T11:42:34;2.67;;;0.57;;
9559;SDS011;4818;50.860;4.648;2022-10-16T11:47:38;2.28;;;0.30;;
9559;SDS011;4818;50.860;4.648;2022-10-16T11:50:20;1.10;;;0.30;;
9559;SDS011;4818;50.860;4.648;2022-10-16T11:55:41;2.17;;;0.30;;
9559;SDS011;4818;50.860;4.648;2022-10-16T11:58:22;1.63;;;0.10;;
9559;SDS011;4818;50.860;4.648;2022-10-16T12:00:57;1.08;;;0.20;;
9559;SDS011;4818;50.860;4.648;2022-10-16T12:03:35;1.80;;;0.22;;
9559;SDS011;4818;50.860;4.648;2022-10-16T12:08:40;1.98;;;0.10;;
9559;SDS011;4818;50.860;4.648;2022-10-16T12:11:30;1.00;;;0.25;;
9559;SDS011;4818;50.860;4.648;2022-10-16T12:19:29;1.95;;;0.10;;
9559;SDS011;4818;50.860;4.648;2022-10-16T12:21:57;3.80;;;0.20;;
9559;SDS011;4818;50.860;4.648;2022-10-16T12:24:37;1.58;;;0.10;;
9559;SDS011;4818;50.860;4.648;2022-10-16T12:27:05;1.75;;;0.50;;
9559;SDS011;4818;50.860;4.648;2022-10-16T12:29:33;1.67;;;0.20;;
9559;SDS011;4818;50.860;4.648;2022-10-16T12:31:59;2.05;;;0.10;;
9559;SDS011;4818;50.860;4.648;2022-10-16T12:34:36;3.50;;;0.20;;
9559;SDS011;4818;50.860;4.648;2022-10-16T12:37:14;2.88;;;0.17;;
9559;SDS011;4818;50.860;4.648;2022-10-16T12:39:41;1.35;;;0.10;;
9559;SDS011;4818;50.860;4.648;2022-10-16T12:42:30;1.58;;;0.15;;
9559;SDS011;4818;50.860;4.648;2022-10-16T12:45:01;2.25;;;0.10;;
9559;SDS011;4818;50.860;4.648;2022-10-16T12:49:56;0.57;;;0.10;;
9559;SDS011;4818;50.860;4.648;2022-10-16T12:52:39;0.75;;;0.10;;
9559;SDS011;4818;50.860;4.648;2022-10-16T12:55:06;1.20;;;0.20;;
9559;SDS011;4818;50.860;4.648;2022-10-16T13:00:36;0.98;;;0.10;;
9559;SDS011;4818;50.860;4.648;2022-10-16T13:11:00;0.93;;;0.17;;
9559;SDS011;4818;50.860;4.648;2022-10-16T13:18:48;2.60;;;0.10;;
9559;SDS011;4818;50.860;4.648;2022-10-16T13:21:31;3.13;;;0.20;;
9559;SDS011;4818;50.860;4.648;2022-10-16T13:24:07;1.20;;;0.10;;
9559;SDS011;4818;50.860;4.648;2022-10-16T13:29:15;2.05;;;0.20;;
9559;SDS011;4818;50.860;4.648;2022-10-16T13:31:48;2.28;;;0.20;;
9559;SDS011;4818;50.860;4.648;2022-10-16T13:34:29;1.73;;;0.20;;
9559;SDS011;4818;50.860;4.648;2022-10-16T13:36:55;3.28;;;0.20;;
9559;SDS011;4818;50.860;4.648;2022-10-16T13:39:29;2.03;;;0.20;;
9559;SDS011;4818;50.860;4.648;2022-10-16T13:44:28;2.95;;;0.20;;
9559;SDS011;4818;50.860;4.648;2022-10-16T13:47:03;2.78;;;0.20;;
9559;SDS011;4818;50.860;4.648;2022-10-16T13:49:30;2.10;;;0.20;;
9559;SDS011;4818;50.860;4.648;2022-10-16T13:51:57;2.33;;;0.20;;
9559;SDS011;4818;50.860;4.648;2022-10-16T13:54:23;2.60;;;0.20;;
9559;SDS011;4818;50.860;4.648;2022-10-16T13:56:52;1.45;;;0.30;;
9559;SDS011;4818;50.860;4.648;2022-10-16T13:59:34;1.05;;;0.20;;
9559;SDS011;4818;50.860;4.648;2022-10-16T14:02:05;3.08;;;0.32;;
9559;SDS011;4818;50.860;4.648;2022-10-16T14:04:32;2.40;;;0.22;;
9559;SDS011;4818;50.860;4.648;2022-10-16T14:07:03;1.65;;;0.20;;
9559;SDS011;4818;50.860;4.648;2022-10-16T14:09:30;2.15;;;0.20;;
9559;SDS011;4818;50.860;4.648;2022-10-16T14:12:00;2.30;;;0.40;;
9559;SDS011;4818;50.860;4.648;2022-10-16T14:14:27;1.23;;;0.20;;
9559;SDS011;4818;50.860;4.648;2022-10-16T14:16:55;2.20;;;0.20;;
9559;SDS011;4818;50.860;4.648;2022-10-16T14:19:22;1.10;;;0.20;;
9559;SDS011;4818;50.860;4.648;2022-10-16T14:21:50;1.75;;;0.20;;
9559;SDS011;4818;50.860;4.648;2022-10-16T14:24:33;1.08;;;0.20;;
9559;SDS011;4818;50.860;4.648;2022-10-16T14:27:02;2.08;;;0.20;;
9559;SDS011;4818;50.860;4.648;2022-10-16T14:29:29;3.47;;;0.20;;
9559;SDS011;4818;50.860;4.648;2022-10-16T14:32:04;1.27;;;0.35;;
9559;SDS011;4818;50.860;4.648;2022-10-16T14:34:31;1.42;;;0.20;;
9559;SDS011;4818;50.860;4.648;2022-10-16T14:39:48;1.60;;;0.30;;
9559;SDS011;4818;50.860;4.648;2022-10-16T14:42:22;1.15;;;0.20;;
9559;SDS011;4818;50.860;4.648;2022-10-16T14:44:50;2.67;;;0.30;;
9559;SDS011;4818;50.860;4.648;2022-10-16T14:47:20;5.68;;;0.45;;
9559;SDS011;4818;50.860;4.648;2022-10-16T14:49:49;1.45;;;0.30;;
9559;SDS011;4818;50.860;4.648;2022-10-16T14:52:15;5.57;;;0.85;;
9559;SDS011;4818;50.860;4.648;2022-10-16T14:54:50;1.80;;;0.20;;
9559;SDS011;4818;50.860;4.648;2022-10-16T14:57:24;2.67;;;0.32;;
9559;SDS011;4818;50.860;4.648;2022-10-16T14:59:52;0.93;;;0.30;;
9559;SDS011;4818;50.860;4.648;2022-10-16T15:02:27;2.70;;;0.35;;
9559;SDS011;4818;50.860;4.648;2022-10-16T15:04:54;3.00;;;0.38;;
9559;SDS011;4818;50.860;4.648;2022-10-16T15:07:20;2.33;;;0.43;;
9559;SDS011;4818;50.860;4.648;2022-10-16T15:09:47;2.00;;;0.30;;
9559;SDS011;4818;50.860;4.648;2022-10-16T15:12:13;2.08;;;0.50;;
9559;SDS011;4818;50.860;4.648;2022-10-16T15:14:39;3.13;;;0.30;;
9559;SDS011;4818;50.860;4.648;2022-10-16T15:17:08;3.53;;;0.30;;
9559;SDS011;4818;50.860;4.648;2022-10-16T15:19:34;3.00;;;0.30;;
9559;SDS011;4818;50.860;4.648;2022-10-16T15:22:00;3.20;;;0.25;;
9559;SDS011;4818;50.860;4.648;2022-10-16T15:24:26;2.97;;;0.30;;
9559;SDS011;4818;50.860;4.648;2022-10-16T15:26:53;1.73;;;0.45;;
9559;SDS011;4818;50.860;4.648;2022-10-16T15:29:20;2.75;;;0.43;;
9559;SDS011;4818;50.860;4.648;2022-10-16T15:31:46;2.15;;;0.40;;
9559;SDS011;4818;50.860;4.648;2022-10-16T15:34:12;3.15;;;1.30;;
9559;SDS011;4818;50.860;4.648;2022-10-16T15:36:39;4.22;;;1.00;;
9559;SDS011;4818;50.860;4.648;2022-10-16T15:39:08;3.88;;;0.85;;
9559;SDS011;4818;50.860;4.648;2022-10-16T15:41:36;4.80;;;1.25;;
9559;SDS011;4818;50.860;4.648;2022-10-16T15:44:03;2.67;;;1.10;;
9559;SDS011;4818;50.860;4.648;2022-10-16T15:46:29;5.72;;;1.02;;
9559;SDS011;4818;50.860;4.648;2022-10-16T15:48:57;4.60;;;0.52;;
9559;SDS011;4818;50.860;4.648;2022-10-16T15:51:24;3.38;;;0.95;;
9559;SDS011;4818;50.860;4.648;2022-10-16T15:53:52;4.43;;;1.10;;
9559;SDS011;4818;50.860;4.648;2022-10-16T15:56:22;5.10;;;0.73;;
9559;SDS011;4818;50.860;4.648;2022-10-16T15:58:50;5.30;;;0.70;;
9559;SDS011;4818;50.860;4.648;2022-10-16T16:01:17;2.13;;;0.40;;
9559;SDS011;4818;50.860;4.648;2022-10-16T16:03:43;3.38;;;0.77;;
9559;SDS011;4818;50.860;4.648;2022-10-16T16:06:11;2.67;;;0.32;;
9559;SDS011;4818;50.860;4.648;2022-10-16T16:08:37;1.02;;;0.30;;
9559;SDS011;4818;50.860;4.648;2022-10-16T16:11:08;1.48;;;0.30;;
9559;SDS011;4818;50.860;4.648;2022-10-16T16:13:34;4.70;;;0.22;;
9559;SDS011;4818;50.860;4.648;2022-10-16T16:16:09;3.65;;;0.55;;
9559;SDS011;4818;50.860;4.648;2022-10-16T16:18:42;1.92;;;0.20;;
9559;SDS011;4818;50.860;4.648;2022-10-16T16:21:12;4.15;;;0.38;;
9559;SDS011;4818;50.860;4.648;2022-10-16T16:23:38;3.28;;;0.40;;
9559;SDS011;4818;50.860;4.648;2022-10-16T16:26:06;2.28;;;0.43;;
9559;SDS011;4818;50.860;4.648;2022-10-16T16:28:33;2.03;;;0.30;;
9559;SDS011;4818;50.860;4.648;2022-10-16T16:30:59;1.17;;;0.38;;
9559;SDS011;4818;50.860;4.648;2022-10-16T16:33:35;3.33;;;0.32;;
9559;SDS011;4818;50.860;4.648;2022-10-16T16:36:02;3.45;;;1.00;;
9559;SDS011;4818;50.860;4.648;2022-10-16T16:38:29;1.98;;;0.30;;
9559;SDS011;4818;50.860;4.648;2022-10-16T16:40:55;3.38;;;0.35;;
9559;SDS011;4818;50.860;4.648;2022-10-16T16:43:22;2.35;;;0.30;;
9559;SDS011;4818;50.860;4.648;2022-10-16T16:45:49;2.50;;;0.35;;
9559;SDS011;4818;50.860;4.648;2022-10-16T16:48:15;2.70;;;0.30;;
9559;SDS011;4818;50.860;4.648;2022-10-16T16:50:41;1.73;;;0.52;;
9559;SDS011;4818;50.860;4.648;2022-10-16T16:53:07;3.63;;;0.50;;
9559;SDS011;4818;50.860;4.648;2022-10-16T16:55:33;3.70;;;0.40;;
9559;SDS011;4818;50.860;4.648;2022-10-16T16:57:59;2.15;;;0.40;;
9559;SDS011;4818;50.860;4.648;2022-10-16T17:00:26;2.83;;;0.47;;
9559;SDS011;4818;50.860;4.648;2022-10-16T17:02:52;6.25;;;0.52;;
9559;SDS011;4818;50.860;4.648;2022-10-16T17:05:18;5.55;;;0.60;;
9559;SDS011;4818;50.860;4.648;2022-10-16T17:07:45;1.25;;;0.30;;
9559;SDS011;4818;50.860;4.648;2022-10-16T17:10:11;3.55;;;0.47;;
9559;SDS011;4818;50.860;4.648;2022-10-16T17:12:39;5.95;;;1.30;;
9559;SDS011;4818;50.860;4.648;2022-10-16T17:15:09;8.82;;;1.30;;
9559;SDS011;4818;50.860;4.648;2022-10-16T17:17:39;2.22;;;0.60;;